עמוד ראשי
METAR-TAF:

METAR-TAF

שדות תעופה :

Prince Rupert, קולומביה הבריטית, קנדה

קו רוחב: 54-18N, קו אורך: 130-26W, גובה: 34מטר

תצפית מזג אוויר נוכחית

הדו"ח נערך לפני 17דקות, בשעה 23:47 UTC
רוח 9קשר מכיוון דרום/דרום-מזרח, משתנה בין מזרח/דרום-מזרח ו דרום/דרום-מערב
טמפרטורת 9 צלסיוס
לחות 87%
לחץ 1009 hPa
ראות: 14.5קילומטר
עננים בינוניים בגובה 2600רגל
עננים בינוניים בגובה 3500רגל
עננים בינוניים בגובה 4900רגל

METAR: CYPR 262347Z AUTO 16009KT 120V200 9SM BKN026 BKN035 BKN049 09/07 A2980 RMK PCPN 2.5MM PAST HR SLP094

זמן: 17:04 (00:04 UTC)

תחזית

הדו"ח נערך לפני 5 שעות ו 24דקות, בשעה 18:40 UTC
תחזית בתוקף מ 26 ב 19 UTC עד 27 ב 07 UTC
רוח 10קשר מכיוון דרום-מזרח עם משבים עד 20קשר
ראות: 10קילומטר
עננים פזורים בגובה 1500רגל
מעונן בגובה 3000רגל
גשם קל
זמנית מ -
26 ב 19 UTC עד 27 ב 07 UTC
ראות: 6.4קילומטר
עננים בינוניים בגובה 1500רגל
מעונן בגובה 3000רגל
ממטרי גשם קלים, אד

TAF: CYPR 261840Z 2619/2707 14010G20KT P6SM -RA SCT015 OVC030 TEMPO 2619/2707 4SM -SHRA BR BKN015 OVC030 RMK FCST BASED ON AUTO OBS. NXT FCST BY 270100Z

תצפיות ותחזיות מזג אוויר לגבי יותר מ- 4,000 שדות תעופה ברחבי העולם. דוחות METAR ו- TAF.

התחנות הזמינות מסומנות בנקודות צהובות ואדומות על גבי המפה.

העבר את העכבר לנקודה הצבעונית על מנת לראות את שם התחנה.

לאחר מכן, לחץ כדי לראות את תוכן ואת תחזיות מזג האוויר.

כדי לשנות את המפה: לחץ על הכפתורים הירוקים עם הפלוס השחור כדי להתקרב; על הכפתור הירוק עם המקף כדי להתרחק; או בחיצים הירוקים למפות סמוכות.


METAR-TAF: